createdAt,value
2022-12-19T00:01:34.693Z,94.28
2022-12-19T00:04:08.132Z,93.96
2022-12-19T00:06:36.258Z,94.24
2022-12-19T00:09:02.684Z,94.53
2022-12-19T00:11:29.908Z,94.34
2022-12-19T00:13:56.923Z,94.59
2022-12-19T00:16:28.406Z,94.88
2022-12-19T00:18:57.224Z,94.68
2022-12-19T00:21:26.241Z,95.00
2022-12-19T00:23:53.026Z,95.10
2022-12-19T00:26:22.384Z,95.06
2022-12-19T00:28:53.535Z,94.72
2022-12-19T00:31:21.467Z,94.56
2022-12-19T00:33:48.776Z,94.75
2022-12-19T00:36:21.800Z,94.76
2022-12-19T00:38:51.021Z,94.57
2022-12-19T00:41:22.746Z,94.63
2022-12-19T00:43:56.365Z,94.89
2022-12-19T00:46:23.129Z,95.02
2022-12-19T00:48:49.562Z,95.09
2022-12-19T00:51:19.125Z,95.38
2022-12-19T00:53:46.651Z,95.21
2022-12-19T00:56:17.256Z,95.62
2022-12-19T00:58:47.111Z,95.94
2022-12-19T01:01:21.046Z,96.39
2022-12-19T01:04:11.318Z,96.21
2022-12-19T01:06:34.595Z,96.42
2022-12-19T01:09:01.397Z,95.87
2022-12-19T01:11:46.201Z,95.97
2022-12-19T01:14:19.035Z,96.00
2022-12-19T01:16:47.415Z,95.96
2022-12-19T01:19:13.964Z,96.08
2022-12-19T01:21:40.382Z,95.75
2022-12-19T01:24:07.052Z,96.14
2022-12-19T01:26:33.511Z,96.20
2022-12-19T01:28:59.895Z,96.00
2022-12-19T01:31:26.365Z,95.50
2022-12-19T01:33:52.786Z,95.80
2022-12-19T01:36:20.965Z,95.79
2022-12-19T01:38:47.315Z,96.16
2022-12-19T01:41:13.742Z,96.45
2022-12-19T01:43:59.082Z,96.32
2022-12-19T01:46:48.847Z,96.59
2022-12-19T01:49:25.395Z,96.62
2022-12-19T01:51:52.822Z,96.70
2022-12-19T01:54:23.019Z,96.41
2022-12-19T01:56:52.012Z,96.86
2022-12-19T01:59:26.795Z,96.77
2022-12-19T02:01:58.603Z,96.79
2022-12-19T02:04:28.937Z,96.59
2022-12-19T02:06:59.754Z,96.84
2022-12-19T02:09:36.133Z,97.22
2022-12-19T02:12:02.741Z,97.08
2022-12-19T02:14:29.326Z,97.08
2022-12-19T02:17:00.398Z,97.20
2022-12-19T02:20:05.932Z,97.08
2022-12-19T02:22:43.987Z,97.20
2022-12-19T02:25:36.391Z,97.55
2022-12-19T02:28:11.865Z,97.57
2022-12-19T02:31:14.272Z,97.48
2022-12-19T02:33:56.302Z,97.46
2022-12-19T02:36:30.204Z,97.60
2022-12-19T02:39:08.876Z,97.51
2022-12-19T02:41:51.475Z,97.50
2022-12-19T02:44:20.461Z,97.79
2022-12-19T02:46:46.845Z,98.23
2022-12-19T02:49:21.392Z,98.16
2022-12-19T02:51:56.945Z,98.44
2022-12-19T02:54:23.398Z,97.93
2022-12-19T02:56:58.928Z,98.25
2022-12-19T02:59:33.171Z,98.12
2022-12-19T03:02:41.277Z,97.98
2022-12-19T03:05:28.292Z,97.78
2022-12-19T03:08:13.547Z,97.79
2022-12-19T03:10:51.015Z,97.71
2022-12-19T03:13:27.588Z,97.68
2022-12-19T03:15:54.048Z,97.89
2022-12-19T03:18:20.629Z,98.05
2022-12-19T03:21:02.542Z,98.02
2022-12-19T03:23:29.488Z,98.15
2022-12-19T03:25:59.579Z,97.93
2022-12-19T03:28:40.428Z,97.85
2022-12-19T03:31:07.963Z,97.88
2022-12-19T03:33:35.349Z,98.00
2022-12-19T03:36:05.102Z,98.17
2022-12-19T03:38:32.069Z,98.33
2022-12-19T03:40:59.827Z,98.29
2022-12-19T03:43:27.097Z,98.32
2022-12-19T03:45:58.193Z,98.40
2022-12-19T03:48:40.738Z,98.57
2022-12-19T03:51:19.225Z,98.50
2022-12-19T03:53:48.071Z,98.47
2022-12-19T03:56:21.594Z,98.51
2022-12-19T03:58:52.667Z,98.62
2022-12-19T04:01:19.370Z,99.13
2022-12-19T04:03:46.054Z,99.04
2022-12-19T04:06:13.374Z,99.15
2022-12-19T04:08:40.123Z,99.36
2022-12-19T04:11:15.594Z,99.12
2022-12-19T04:13:46.580Z,98.97
2022-12-19T04:16:18.860Z,99.31
2022-12-19T04:18:49.657Z,99.11
2022-12-19T04:21:23.891Z,99.07
2022-12-19T04:23:54.095Z,98.90
2022-12-19T04:26:20.430Z,99.26
2022-12-19T04:28:56.698Z,99.44
2022-12-19T04:31:23.569Z,99.32
2022-12-19T04:33:50.061Z,99.33
2022-12-19T04:36:16.572Z,99.25
2022-12-19T04:38:43.049Z,99.62
2022-12-19T04:41:09.596Z,99.90
2022-12-19T04:43:35.960Z,99.85
2022-12-19T04:46:02.407Z,99.79
2022-12-19T04:48:28.857Z,100.00
2022-12-19T04:50:56.059Z,99.86
2022-12-19T04:53:22.521Z,100.00
2022-12-19T04:55:48.968Z,100.00
2022-12-19T04:58:19.035Z,100.00
2022-12-19T05:00:47.957Z,100.00
2022-12-19T05:03:14.435Z,100.00
2022-12-19T05:05:40.956Z,100.00
2022-12-19T05:08:07.843Z,100.00
2022-12-19T05:10:34.212Z,100.00
2022-12-19T05:13:00.591Z,100.00
2022-12-19T05:15:27.070Z,100.00
2022-12-19T05:17:53.463Z,100.00
2022-12-19T05:20:19.902Z,100.00
2022-12-19T05:22:46.609Z,100.00
2022-12-19T05:25:13.002Z,100.00
2022-12-19T05:27:39.368Z,100.00
2022-12-19T05:30:06.467Z,100.00
2022-12-19T05:32:33.722Z,100.00
2022-12-19T05:35:00.150Z,100.00
2022-12-19T05:37:26.564Z,100.00
2022-12-19T05:39:52.925Z,100.00
2022-12-19T05:42:19.352Z,100.00
2022-12-19T05:44:45.726Z,100.00
2022-12-19T05:47:12.078Z,100.00
2022-12-19T05:49:41.435Z,100.00
2022-12-19T05:52:11.525Z,100.00
2022-12-19T05:54:38.048Z,100.00
2022-12-19T05:57:04.459Z,100.00
2022-12-19T05:59:30.879Z,100.00
2022-12-19T06:01:57.302Z,100.00
2022-12-19T06:04:24.443Z,100.00
2022-12-19T06:06:50.844Z,100.00
2022-12-19T06:09:17.644Z,100.00
2022-12-19T06:11:44.030Z,100.00
2022-12-19T06:14:10.379Z,100.00
2022-12-19T06:16:36.866Z,100.00
2022-12-19T06:19:03.298Z,100.00
2022-12-19T06:21:29.764Z,100.00
2022-12-19T06:23:56.434Z,100.00
2022-12-19T06:26:22.948Z,100.00
2022-12-19T06:28:51.530Z,100.00
2022-12-19T06:31:19.458Z,100.00
2022-12-19T06:33:46.185Z,100.00
2022-12-19T06:36:26.177Z,100.00
2022-12-19T06:38:53.510Z,100.00
2022-12-19T06:41:39.057Z,100.00
2022-12-19T06:44:07.283Z,100.00
2022-12-19T06:46:34.813Z,100.00
2022-12-19T06:49:02.522Z,100.00
2022-12-19T06:51:29.473Z,100.00
2022-12-19T06:53:56.309Z,100.00
2022-12-19T06:56:23.459Z,100.00
2022-12-19T06:58:50.543Z,100.00
2022-12-19T07:01:27.737Z,100.00
2022-12-19T07:03:54.594Z,100.00
2022-12-19T07:06:20.971Z,100.00
2022-12-19T07:08:47.434Z,100.00
2022-12-19T07:11:13.796Z,100.00
2022-12-19T07:13:40.265Z,100.00
2022-12-19T07:16:07.122Z,100.00
2022-12-19T07:18:36.279Z,100.00
2022-12-19T07:21:03.167Z,100.00
2022-12-19T07:23:29.870Z,100.00
2022-12-19T07:25:56.398Z,100.00
2022-12-19T07:28:22.898Z,100.00
2022-12-19T07:30:49.418Z,100.00
2022-12-19T07:33:21.260Z,100.00
2022-12-19T07:35:48.220Z,100.00
2022-12-19T07:38:14.682Z,100.00
2022-12-19T07:40:41.124Z,100.00
2022-12-19T07:43:07.558Z,100.00
2022-12-19T07:45:36.840Z,100.00
2022-12-19T07:48:04.734Z,100.00
2022-12-19T07:50:31.690Z,100.00
2022-12-19T07:52:58.514Z,100.00
2022-12-19T07:55:25.708Z,100.00
2022-12-19T07:57:53.419Z,100.00
2022-12-19T08:00:19.896Z,100.00
2022-12-19T08:02:46.806Z,100.00
2022-12-19T08:05:13.501Z,100.00
2022-12-19T08:07:40.748Z,100.00
2022-12-19T08:10:12.497Z,100.00
2022-12-19T08:12:39.014Z,100.00
2022-12-19T08:15:06.117Z,100.00
2022-12-19T08:17:34.446Z,100.00
2022-12-19T08:20:00.969Z,100.00
2022-12-19T08:22:31.498Z,100.00
2022-12-19T08:24:58.002Z,100.00
2022-12-19T08:27:24.699Z,100.00
2022-12-19T08:29:51.115Z,100.00
2022-12-19T08:32:21.197Z,100.00
2022-12-19T08:34:48.813Z,100.00
2022-12-19T08:37:15.256Z,100.00
2022-12-19T08:39:43.748Z,100.00
2022-12-19T08:42:10.115Z,100.00
2022-12-19T08:44:36.473Z,100.00
2022-12-19T08:47:02.976Z,100.00
2022-12-19T08:49:29.511Z,100.00
2022-12-19T08:51:56.064Z,100.00
2022-12-19T08:54:22.530Z,100.00
2022-12-19T08:56:48.975Z,100.00
2022-12-19T08:59:19.091Z,100.00
2022-12-19T09:01:57.353Z,100.00
2022-12-19T09:05:57.404Z,100.00
2022-12-19T09:07:10.495Z,100.00
2022-12-19T09:09:36.863Z,100.00
2022-12-19T09:12:03.377Z,100.00
2022-12-19T09:14:33.601Z,100.00
2022-12-19T09:17:00.426Z,100.00
2022-12-19T09:19:29.455Z,100.00
2022-12-19T09:21:56.208Z,100.00
2022-12-19T09:24:22.711Z,100.00
2022-12-19T09:26:49.141Z,100.00
2022-12-19T09:29:20.470Z,100.00
2022-12-19T09:31:50.035Z,100.00
2022-12-19T09:34:22.637Z,100.00
2022-12-19T09:36:50.574Z,100.00
2022-12-19T09:39:17.309Z,100.00
2022-12-19T09:42:05.570Z,100.00
2022-12-19T09:44:38.314Z,100.00
2022-12-19T09:47:10.324Z,100.00
2022-12-19T09:49:41.730Z,100.00
2022-12-19T09:52:35.317Z,100.00
2022-12-19T09:55:20.566Z,100.00
2022-12-19T09:57:55.795Z,100.00
2022-12-19T10:00:22.865Z,100.00
2022-12-19T10:02:58.559Z,100.00
2022-12-19T10:07:09.202Z,100.00
2022-12-19T10:09:00.265Z,100.00
2022-12-19T10:12:42.984Z,100.00
2022-12-19T10:15:14.097Z,100.00
2022-12-19T10:18:24.509Z,100.00
2022-12-19T10:21:18.222Z,100.00
2022-12-19T10:24:12.004Z,100.00
2022-12-19T10:26:43.700Z,100.00
2022-12-19T10:29:16.210Z,100.00
2022-12-19T10:31:56.980Z,100.00
2022-12-19T10:34:25.525Z,100.00
2022-12-19T10:37:27.674Z,100.00
2022-12-19T10:40:02.475Z,100.00
2022-12-19T10:42:41.428Z,99.76
2022-12-19T10:45:17.863Z,99.63
2022-12-19T10:47:44.496Z,99.65
2022-12-19T10:50:13.123Z,99.66
2022-12-19T10:52:47.147Z,99.55
2022-12-19T10:55:30.425Z,99.11
2022-12-19T10:58:02.330Z,99.03
2022-12-19T11:00:32.871Z,99.41
2022-12-19T11:03:18.896Z,99.38
2022-12-19T11:05:57.120Z,99.48
2022-12-19T11:08:27.464Z,99.33
2022-12-19T11:13:19.422Z,99.23
2022-12-19T11:16:56.623Z,99.52
2022-12-19T11:21:22.016Z,99.57
2022-12-19T11:28:06.017Z,99.14
2022-12-19T11:29:34.915Z,99.26
2022-12-19T11:30:44.128Z,99.26
2022-12-19T11:30:46.938Z,99.06
2022-12-19T11:33:24.719Z,99.06
2022-12-19T11:35:56.592Z,98.99
2022-12-19T11:38:36.924Z,98.98
2022-12-19T11:41:13.846Z,99.49
2022-12-19T11:43:48.289Z,99.65
2022-12-19T11:46:23.750Z,99.59
2022-12-19T11:48:52.483Z,99.55
2022-12-19T11:51:22.012Z,99.41
2022-12-19T11:54:15.378Z,99.44
2022-12-19T11:56:41.879Z,99.40
2022-12-19T11:59:12.870Z,99.41
2022-12-19T12:01:44.266Z,100.00
2022-12-19T12:04:41.975Z,99.42
2022-12-19T12:07:30.852Z,99.54
2022-12-19T12:16:34.971Z,99.24
2022-12-19T12:23:09.462Z,99.23
2022-12-19T12:31:01.055Z,99.44
2022-12-19T12:31:13.018Z,99.38
2022-12-19T12:31:42.136Z,99.26
2022-12-19T12:32:02.747Z,99.00
2022-12-19T12:32:06.512Z,99.41
2022-12-19T12:35:56.641Z,98.61
2022-12-19T12:40:42.640Z,98.38
2022-12-19T12:43:35.319Z,98.08
2022-12-19T12:46:04.418Z,97.89
2022-12-19T12:48:47.846Z,97.85
2022-12-19T12:51:14.675Z,97.73
2022-12-19T12:53:44.375Z,97.29
2022-12-19T12:56:12.817Z,97.35
2022-12-19T12:58:54.661Z,96.94
2022-12-19T13:01:30.222Z,96.82
2022-12-19T13:04:12.170Z,96.86
2022-12-19T13:06:49.336Z,96.61
2022-12-19T13:09:26.945Z,96.42
2022-12-19T13:12:34.013Z,96.10
2022-12-19T13:15:18.741Z,96.00
2022-12-19T13:17:48.077Z,95.77
2022-12-19T13:20:18.439Z,95.63
2022-12-19T13:22:46.326Z,95.65
2022-12-19T13:25:34.518Z,95.10
2022-12-19T13:28:04.090Z,94.83
2022-12-19T13:30:32.270Z,94.71
2022-12-19T13:33:13.026Z,94.46
2022-12-19T13:37:02.199Z,94.21
2022-12-19T13:39:56.400Z,94.20
2022-12-19T13:41:49.001Z,93.91
2022-12-19T13:44:20.145Z,94.16
2022-12-19T13:46:46.852Z,94.10
2022-12-19T13:49:25.317Z,93.68
2022-12-19T13:51:59.170Z,93.54
2022-12-19T13:54:32.886Z,93.36
2022-12-19T13:57:02.612Z,92.98
2022-12-19T13:59:37.987Z,92.88
2022-12-19T14:02:16.585Z,92.53
2022-12-19T14:04:44.557Z,92.52
2022-12-19T14:07:34.775Z,92.31
2022-12-19T14:11:34.950Z,92.58
2022-12-19T14:14:01.509Z,92.32
2022-12-19T14:15:58.038Z,91.93
2022-12-19T14:18:44.993Z,91.90
2022-12-19T14:22:07.403Z,92.28
2022-12-19T14:24:17.054Z,91.96
2022-12-19T14:28:18.524Z,91.64
2022-12-19T14:30:28.244Z,91.42
2022-12-19T14:33:43.871Z,91.18
2022-12-19T14:36:07.173Z,90.91
2022-12-19T14:39:25.484Z,90.28
2022-12-19T14:41:08.235Z,90.03
2022-12-19T14:43:59.667Z,89.90
2022-12-19T14:53:34.253Z,89.91
2022-12-19T14:54:01.705Z,89.70
2022-12-19T14:54:33.733Z,89.29
2022-12-19T14:56:08.523Z,89.22
2022-12-19T14:58:53.399Z,89.17
2022-12-19T15:01:09.287Z,89.20
2022-12-19T15:03:52.313Z,89.28
2022-12-19T15:07:07.037Z,89.46
2022-12-19T15:11:07.821Z,89.67
2022-12-19T15:14:54.058Z,90.10
2022-12-19T15:15:23.972Z,91.32
2022-12-19T15:17:53.981Z,91.49
2022-12-19T15:20:20.812Z,91.61
2022-12-19T15:22:47.693Z,91.70
2022-12-19T15:25:53.124Z,92.02
2022-12-19T15:28:05.580Z,92.46
2022-12-19T15:30:33.735Z,92.74
2022-12-19T15:33:00.121Z,93.25
2022-12-19T15:35:26.492Z,92.91
2022-12-19T15:37:52.858Z,93.42
2022-12-19T15:40:19.292Z,93.33
2022-12-19T15:42:48.114Z,93.13
2022-12-19T15:45:16.262Z,93.31
2022-12-19T15:47:43.281Z,92.95
2022-12-19T15:50:22.171Z,92.40
2022-12-19T15:52:48.740Z,92.47
2022-12-19T15:55:17.145Z,92.12
2022-12-19T15:57:49.581Z,92.17
2022-12-19T16:00:16.182Z,91.87
2022-12-19T16:03:21.203Z,91.58
2022-12-19T16:05:29.539Z,91.70
2022-12-19T16:07:56.888Z,91.41
2022-12-19T16:10:23.321Z,91.32
2022-12-19T16:12:52.443Z,91.18
2022-12-19T16:15:30.919Z,91.07
2022-12-19T16:17:58.899Z,91.03
2022-12-19T16:20:30.638Z,91.14
2022-12-19T16:22:57.317Z,90.78
2022-12-19T16:25:39.718Z,90.94
2022-12-19T16:28:08.182Z,90.69
2022-12-19T16:30:35.684Z,90.42
2022-12-19T16:33:02.228Z,90.64
2022-12-19T16:36:02.323Z,90.24
2022-12-19T16:38:17.257Z,90.19
2022-12-19T16:40:44.412Z,89.52
2022-12-19T16:43:15.564Z,89.37
2022-12-19T16:45:42.482Z,89.42
2022-12-19T16:48:19.821Z,88.76
2022-12-19T16:50:46.447Z,88.99
2022-12-19T16:53:13.098Z,88.64
2022-12-19T16:55:39.825Z,88.63
2022-12-19T16:58:06.318Z,88.36
2022-12-19T17:00:36.396Z,88.30
2022-12-19T17:03:07.562Z,88.25
2022-12-19T17:05:34.086Z,88.61
2022-12-19T17:08:01.657Z,88.64
2022-12-19T17:10:30.488Z,88.05
2022-12-19T17:12:58.248Z,88.00
2022-12-19T17:15:28.706Z,87.80
2022-12-19T17:17:58.119Z,87.88
2022-12-19T17:20:27.812Z,87.79
2022-12-19T17:22:54.177Z,87.52
2022-12-19T17:25:25.786Z,87.28
2022-12-19T17:27:53.384Z,87.37
2022-12-19T17:30:20.237Z,87.45
2022-12-19T17:32:48.663Z,87.20
2022-12-19T17:35:25.867Z,87.00
2022-12-19T17:37:55.733Z,86.91
2022-12-19T17:40:27.258Z,86.77
2022-12-19T17:42:54.573Z,87.11
2022-12-19T17:45:22.241Z,87.06
2022-12-19T17:47:49.372Z,86.69
2022-12-19T17:50:23.946Z,86.60
2022-12-19T17:52:51.260Z,86.92
2022-12-19T17:55:28.721Z,86.82
2022-12-19T17:57:55.603Z,86.76
2022-12-19T18:00:30.079Z,86.74
2022-12-19T18:02:58.172Z,86.85
2022-12-19T18:05:36.380Z,86.34
2022-12-19T18:08:03.882Z,86.57
2022-12-19T18:10:31.504Z,86.54
2022-12-19T18:12:58.218Z,86.69
2022-12-19T18:15:25.406Z,86.71
2022-12-19T18:17:52.715Z,86.46
2022-12-19T18:20:31.562Z,86.68
2022-12-19T18:22:59.809Z,86.77
2022-12-19T18:25:28.741Z,86.97
2022-12-19T18:27:55.272Z,86.72
2022-12-19T18:30:23.610Z,86.67
2022-12-19T18:32:57.132Z,86.61
2022-12-19T18:35:31.433Z,86.34
2022-12-19T18:38:00.390Z,86.29
2022-12-19T18:40:31.325Z,86.40
2022-12-19T18:42:58.816Z,86.36
2022-12-19T18:45:29.780Z,86.47
2022-12-19T18:47:59.224Z,86.72
2022-12-19T18:50:26.714Z,86.67
2022-12-19T18:52:54.424Z,86.45
2022-12-19T18:55:27.497Z,86.33
2022-12-19T18:57:53.999Z,86.45
2022-12-19T19:00:22.997Z,86.13
2022-12-19T19:02:54.601Z,86.11
2022-12-19T19:05:24.037Z,86.03
2022-12-19T19:07:50.517Z,86.48
2022-12-19T19:10:26.820Z,86.13
2022-12-19T19:12:54.179Z,85.99
2022-12-19T19:15:22.696Z,85.71
2022-12-19T19:17:51.581Z,85.90
2022-12-19T19:20:18.181Z,85.83
2022-12-19T19:22:45.108Z,86.16
2022-12-19T19:25:12.059Z,85.71
2022-12-19T19:27:39.851Z,85.85
2022-12-19T19:30:06.910Z,85.81
2022-12-19T19:32:33.869Z,85.55
2022-12-19T19:35:00.678Z,85.59
2022-12-19T19:37:27.660Z,85.52
2022-12-19T19:39:54.120Z,85.52
2022-12-19T19:42:20.566Z,85.42
2022-12-19T19:44:46.947Z,85.61
2022-12-19T19:47:13.505Z,85.51
2022-12-19T19:49:39.933Z,85.23
2022-12-19T19:52:06.421Z,85.34
2022-12-19T19:54:34.711Z,85.51
2022-12-19T19:57:01.107Z,85.54
2022-12-19T19:59:31.220Z,85.46
2022-12-19T20:01:57.818Z,85.49
2022-12-19T20:04:24.411Z,85.62
2022-12-19T20:06:50.893Z,85.26
2022-12-19T20:09:17.265Z,85.05
2022-12-19T20:11:43.687Z,85.35
2022-12-19T20:14:10.101Z,84.93
2022-12-19T20:16:36.667Z,85.19
2022-12-19T20:19:03.149Z,85.13
2022-12-19T20:21:30.629Z,84.77
2022-12-19T20:23:57.512Z,85.11
2022-12-19T20:26:23.987Z,84.97
2022-12-19T20:28:51.268Z,85.10
2022-12-19T20:31:19.243Z,85.19
2022-12-19T20:33:46.327Z,85.14
2022-12-19T20:36:13.450Z,85.14
2022-12-19T20:38:40.466Z,84.88
2022-12-19T20:41:07.553Z,85.19
2022-12-19T20:43:34.089Z,85.10
2022-12-19T20:46:02.373Z,85.05
2022-12-19T20:48:28.835Z,85.24
2022-12-19T20:50:56.714Z,85.53
2022-12-19T20:53:23.150Z,85.85
2022-12-19T20:55:58.426Z,85.51
2022-12-19T20:58:26.094Z,85.80
2022-12-19T21:00:56.466Z,85.27
2022-12-19T21:03:28.895Z,85.87
2022-12-19T21:05:57.777Z,85.91
2022-12-19T21:08:25.440Z,86.08
2022-12-19T21:10:52.076Z,86.08
2022-12-19T21:13:19.331Z,85.97
2022-12-19T21:15:45.891Z,86.35
2022-12-19T21:18:12.389Z,86.14
2022-12-19T21:20:38.926Z,85.69
2022-12-19T21:23:05.444Z,85.79
2022-12-19T21:25:31.950Z,85.84
2022-12-19T21:27:58.372Z,85.93
2022-12-19T21:30:24.979Z,85.97
2022-12-19T21:32:51.382Z,85.90
2022-12-19T21:35:17.807Z,85.73
2022-12-19T21:37:49.881Z,85.86
2022-12-19T21:40:16.764Z,86.02
2022-12-19T21:42:43.261Z,85.47
2022-12-19T21:45:10.687Z,85.64
2022-12-19T21:47:39.533Z,85.76
2022-12-19T21:50:07.757Z,85.56
2022-12-19T21:52:34.120Z,85.52
2022-12-19T21:55:00.532Z,84.79
2022-12-19T21:57:27.006Z,85.09
2022-12-19T21:59:53.514Z,84.82
2022-12-19T22:02:20.390Z,85.30
2022-12-19T22:04:48.458Z,84.78
2022-12-19T22:07:15.297Z,84.69
2022-12-19T22:09:41.702Z,84.83
2022-12-19T22:12:10.485Z,84.90
2022-12-19T22:14:36.970Z,85.36
2022-12-19T22:17:03.711Z,85.16
2022-12-19T22:19:30.080Z,85.14
2022-12-19T22:21:56.477Z,85.10
2022-12-19T22:24:22.921Z,85.22
2022-12-19T22:26:49.354Z,85.48
2022-12-19T22:29:16.732Z,85.55
2022-12-19T22:31:44.701Z,85.33
2022-12-19T22:34:13.774Z,85.33
2022-12-19T22:36:42.453Z,85.33
2022-12-19T22:39:11.083Z,85.07
2022-12-19T22:41:38.307Z,85.09
2022-12-19T22:44:05.070Z,85.09
2022-12-19T22:46:33.889Z,85.40
2022-12-19T22:49:03.672Z,85.16
2022-12-19T22:51:31.184Z,85.33
2022-12-19T22:53:58.230Z,84.95
2022-12-19T22:56:26.776Z,84.85
2022-12-19T22:58:54.969Z,84.33
2022-12-19T23:01:29.420Z,84.40
2022-12-19T23:03:58.019Z,84.41
2022-12-19T23:06:26.716Z,84.68
2022-12-19T23:08:53.480Z,84.74
2022-12-19T23:11:22.721Z,84.32
2022-12-19T23:13:49.625Z,84.61
2022-12-19T23:16:16.533Z,84.55
2022-12-19T23:18:43.121Z,84.71
2022-12-19T23:21:14.306Z,84.20
2022-12-19T23:23:42.566Z,84.16
2022-12-19T23:26:16.104Z,84.25
2022-12-19T23:28:44.253Z,84.21
2022-12-19T23:31:13.368Z,84.42
2022-12-19T23:33:39.774Z,84.24
2022-12-19T23:36:06.504Z,84.45
2022-12-19T23:38:33.257Z,84.65
2022-12-19T23:41:05.883Z,84.14
2022-12-19T23:43:33.721Z,84.28
2022-12-19T23:46:07.735Z,84.23
2022-12-19T23:48:34.287Z,84.26
2022-12-19T23:51:05.815Z,84.05
2022-12-19T23:53:32.770Z,84.16
2022-12-19T23:55:59.418Z,83.97
2022-12-19T23:58:25.902Z,84.12
